sensor_id;sensor_type;location;lat;lon;timestamp;P1;durP1;ratioP1;P2;durP2;ratioP2
11837;SDS011;5978;51.020;6.764;2023-05-16T00:01:52;9.83;;;6.03;;
11837;SDS011;5978;51.020;6.764;2023-05-16T00:04:18;8.93;;;6.23;;
11837;SDS011;5978;51.020;6.764;2023-05-16T00:06:44;9.50;;;5.40;;
11837;SDS011;5978;51.020;6.764;2023-05-16T00:09:09;8.03;;;5.80;;
11837;SDS011;5978;51.020;6.764;2023-05-16T00:11:35;6.67;;;5.93;;
11837;SDS011;5978;51.020;6.764;2023-05-16T00:14:01;10.27;;;7.30;;
11837;SDS011;5978;51.020;6.764;2023-05-16T00:16:28;7.53;;;5.77;;
11837;SDS011;5978;51.020;6.764;2023-05-16T00:18:54;8.33;;;5.90;;
11837;SDS011;5978;51.020;6.764;2023-05-16T00:21:21;10.70;;;5.70;;
11837;SDS011;5978;51.020;6.764;2023-05-16T00:23:48;10.80;;;5.43;;
11837;SDS011;5978;51.020;6.764;2023-05-16T00:26:13;4.83;;;4.20;;
11837;SDS011;5978;51.020;6.764;2023-05-16T00:28:39;4.17;;;3.73;;
11837;SDS011;5978;51.020;6.764;2023-05-16T00:31:05;5.73;;;3.53;;
11837;SDS011;5978;51.020;6.764;2023-05-16T00:33:30;3.60;;;3.30;;
11837;SDS011;5978;51.020;6.764;2023-05-16T00:35:56;5.23;;;3.67;;
11837;SDS011;5978;51.020;6.764;2023-05-16T00:38:23;4.00;;;3.00;;
11837;SDS011;5978;51.020;6.764;2023-05-16T00:40:50;3.23;;;2.93;;
11837;SDS011;5978;51.020;6.764;2023-05-16T00:43:15;5.50;;;3.30;;
11837;SDS011;5978;51.020;6.764;2023-05-16T00:45:41;4.40;;;2.80;;
11837;SDS011;5978;51.020;6.764;2023-05-16T00:48:07;4.00;;;3.60;;
11837;SDS011;5978;51.020;6.764;2023-05-16T00:50:33;3.10;;;2.80;;
11837;SDS011;5978;51.020;6.764;2023-05-16T00:53:01;3.40;;;2.77;;
11837;SDS011;5978;51.020;6.764;2023-05-16T00:55:26;5.13;;;3.60;;
11837;SDS011;5978;51.020;6.764;2023-05-16T00:57:52;4.20;;;3.20;;
11837;SDS011;5978;51.020;6.764;2023-05-16T01:00:18;3.73;;;2.50;;
11837;SDS011;5978;51.020;6.764;2023-05-16T01:02:45;5.47;;;2.60;;
11837;SDS011;5978;51.020;6.764;2023-05-16T01:05:11;3.47;;;2.67;;
11837;SDS011;5978;51.020;6.764;2023-05-16T01:07:37;4.00;;;2.90;;
11837;SDS011;5978;51.020;6.764;2023-05-16T01:10:03;2.50;;;2.30;;
11837;SDS011;5978;51.020;6.764;2023-05-16T01:15:43;6.23;;;2.60;;
11837;SDS011;5978;51.020;6.764;2023-05-16T01:18:20;4.70;;;3.10;;
11837;SDS011;5978;51.020;6.764;2023-05-16T01:21:00;3.77;;;3.30;;
11837;SDS011;5978;51.020;6.764;2023-05-16T01:26:20;4.10;;;3.70;;
11837;SDS011;5978;51.020;6.764;2023-05-16T01:28:47;3.17;;;2.40;;
11837;SDS011;5978;51.020;6.764;2023-05-16T01:31:14;4.43;;;3.37;;
11837;SDS011;5978;51.020;6.764;2023-05-16T01:33:40;5.80;;;3.83;;
11837;SDS011;5978;51.020;6.764;2023-05-16T01:36:11;5.50;;;3.97;;
11837;SDS011;5978;51.020;6.764;2023-05-16T01:38:40;6.30;;;3.57;;
11837;SDS011;5978;51.020;6.764;2023-05-16T01:44:38;6.13;;;3.60;;
11837;SDS011;5978;51.020;6.764;2023-05-16T01:47:12;6.93;;;4.50;;
11837;SDS011;5978;51.020;6.764;2023-05-16T01:52:31;4.47;;;3.40;;
11837;SDS011;5978;51.020;6.764;2023-05-16T01:55:05;5.00;;;3.80;;
11837;SDS011;5978;51.020;6.764;2023-05-16T01:57:35;3.50;;;3.20;;
11837;SDS011;5978;51.020;6.764;2023-05-16T02:00:02;6.50;;;3.80;;
11837;SDS011;5978;51.020;6.764;2023-05-16T02:02:28;5.73;;;3.70;;
11837;SDS011;5978;51.020;6.764;2023-05-16T02:04:55;4.50;;;3.67;;
11837;SDS011;5978;51.020;6.764;2023-05-16T02:07:20;5.90;;;3.50;;
11837;SDS011;5978;51.020;6.764;2023-05-16T02:09:46;8.20;;;3.80;;
11837;SDS011;5978;51.020;6.764;2023-05-16T02:12:12;7.40;;;4.30;;
11837;SDS011;5978;51.020;6.764;2023-05-16T02:14:38;13.50;;;5.10;;
11837;SDS011;5978;51.020;6.764;2023-05-16T02:17:04;8.20;;;4.67;;
11837;SDS011;5978;51.020;6.764;2023-05-16T02:19:30;9.50;;;4.57;;
11837;SDS011;5978;51.020;6.764;2023-05-16T02:21:55;5.87;;;3.90;;
11837;SDS011;5978;51.020;6.764;2023-05-16T02:24:21;9.43;;;4.00;;
11837;SDS011;5978;51.020;6.764;2023-05-16T02:26:47;9.03;;;4.23;;
11837;SDS011;5978;51.020;6.764;2023-05-16T02:29:13;12.93;;;4.93;;
11837;SDS011;5978;51.020;6.764;2023-05-16T02:31:40;7.50;;;4.27;;
11837;SDS011;5978;51.020;6.764;2023-05-16T02:34:06;13.33;;;4.30;;
11837;SDS011;5978;51.020;6.764;2023-05-16T02:36:32;13.63;;;4.10;;
11837;SDS011;5978;51.020;6.764;2023-05-16T02:39:00;7.07;;;3.20;;
11837;SDS011;5978;51.020;6.764;2023-05-16T02:41:26;11.50;;;4.03;;
11837;SDS011;5978;51.020;6.764;2023-05-16T02:43:52;10.63;;;4.47;;
11837;SDS011;5978;51.020;6.764;2023-05-16T02:46:28;19.80;;;4.10;;
11837;SDS011;5978;51.020;6.764;2023-05-16T02:48:54;13.90;;;4.60;;
11837;SDS011;5978;51.020;6.764;2023-05-16T02:51:21;17.07;;;4.33;;
11837;SDS011;5978;51.020;6.764;2023-05-16T02:53:48;15.30;;;5.20;;
11837;SDS011;5978;51.020;6.764;2023-05-16T02:56:14;12.53;;;4.30;;
11837;SDS011;5978;51.020;6.764;2023-05-16T02:58:40;13.53;;;3.90;;
11837;SDS011;5978;51.020;6.764;2023-05-16T03:01:06;14.93;;;5.00;;
11837;SDS011;5978;51.020;6.764;2023-05-16T03:03:33;12.63;;;4.30;;
11837;SDS011;5978;51.020;6.764;2023-05-16T03:06:00;10.93;;;4.97;;
11837;SDS011;5978;51.020;6.764;2023-05-16T03:08:26;14.80;;;3.97;;
11837;SDS011;5978;51.020;6.764;2023-05-16T03:10:52;7.57;;;3.73;;
11837;SDS011;5978;51.020;6.764;2023-05-16T03:13:18;14.40;;;5.40;;
11837;SDS011;5978;51.020;6.764;2023-05-16T03:15:44;9.93;;;5.20;;
11837;SDS011;5978;51.020;6.764;2023-05-16T03:18:10;7.97;;;4.40;;
11837;SDS011;5978;51.020;6.764;2023-05-16T03:20:36;8.33;;;4.17;;
11837;SDS011;5978;51.020;6.764;2023-05-16T03:23:02;8.10;;;4.20;;
11837;SDS011;5978;51.020;6.764;2023-05-16T03:25:31;12.03;;;5.00;;
11837;SDS011;5978;51.020;6.764;2023-05-16T03:27:57;13.80;;;6.10;;
11837;SDS011;5978;51.020;6.764;2023-05-16T03:30:23;16.53;;;4.70;;
11837;SDS011;5978;51.020;6.764;2023-05-16T03:32:50;16.23;;;4.97;;
11837;SDS011;5978;51.020;6.764;2023-05-16T03:35:16;13.77;;;5.57;;
11837;SDS011;5978;51.020;6.764;2023-05-16T03:37:41;10.00;;;5.27;;
11837;SDS011;5978;51.020;6.764;2023-05-16T03:40:07;17.63;;;5.80;;
11837;SDS011;5978;51.020;6.764;2023-05-16T03:42:33;12.57;;;5.30;;
11837;SDS011;5978;51.020;6.764;2023-05-16T03:44:59;16.10;;;4.40;;
11837;SDS011;5978;51.020;6.764;2023-05-16T03:47:25;17.27;;;5.17;;
11837;SDS011;5978;51.020;6.764;2023-05-16T03:49:50;13.83;;;5.63;;
11837;SDS011;5978;51.020;6.764;2023-05-16T03:52:17;7.27;;;4.70;;
11837;SDS011;5978;51.020;6.764;2023-05-16T03:54:43;11.40;;;4.80;;
11837;SDS011;5978;51.020;6.764;2023-05-16T03:57:08;12.37;;;4.90;;
11837;SDS011;5978;51.020;6.764;2023-05-16T03:59:34;20.97;;;4.73;;
11837;SDS011;5978;51.020;6.764;2023-05-16T04:02:00;11.70;;;4.60;;
11837;SDS011;5978;51.020;6.764;2023-05-16T04:04:26;9.80;;;5.50;;
11837;SDS011;5978;51.020;6.764;2023-05-16T04:06:52;8.50;;;4.33;;
11837;SDS011;5978;51.020;6.764;2023-05-16T04:09:18;18.63;;;5.57;;
11837;SDS011;5978;51.020;6.764;2023-05-16T04:11:43;10.03;;;4.47;;
11837;SDS011;5978;51.020;6.764;2023-05-16T04:14:09;10.00;;;4.40;;
11837;SDS011;5978;51.020;6.764;2023-05-16T04:16:35;18.77;;;5.73;;
11837;SDS011;5978;51.020;6.764;2023-05-16T04:19:01;12.37;;;4.30;;
11837;SDS011;5978;51.020;6.764;2023-05-16T04:21:28;8.33;;;4.90;;
11837;SDS011;5978;51.020;6.764;2023-05-16T04:23:53;18.57;;;4.73;;
11837;SDS011;5978;51.020;6.764;2023-05-16T04:26:19;14.83;;;5.13;;
11837;SDS011;5978;51.020;6.764;2023-05-16T04:28:46;11.63;;;4.30;;
11837;SDS011;5978;51.020;6.764;2023-05-16T04:31:12;15.00;;;4.60;;
11837;SDS011;5978;51.020;6.764;2023-05-16T04:33:38;21.90;;;5.37;;
11837;SDS011;5978;51.020;6.764;2023-05-16T04:36:04;13.10;;;4.60;;
11837;SDS011;5978;51.020;6.764;2023-05-16T04:38:30;12.50;;;5.47;;
11837;SDS011;5978;51.020;6.764;2023-05-16T04:40:57;12.82;;;4.85;;
11837;SDS011;5978;51.020;6.764;2023-05-16T04:43:22;10.77;;;4.67;;
11837;SDS011;5978;51.020;6.764;2023-05-16T04:45:48;13.17;;;4.33;;
11837;SDS011;5978;51.020;6.764;2023-05-16T04:48:14;11.85;;;4.72;;
11837;SDS011;5978;51.020;6.764;2023-05-16T04:50:40;14.63;;;4.30;;
11837;SDS011;5978;51.020;6.764;2023-05-16T04:53:06;10.43;;;3.63;;
11837;SDS011;5978;51.020;6.764;2023-05-16T04:55:32;11.87;;;4.37;;
11837;SDS011;5978;51.020;6.764;2023-05-16T04:57:57;22.03;;;5.23;;
11837;SDS011;5978;51.020;6.764;2023-05-16T05:00:23;7.47;;;4.20;;
11837;SDS011;5978;51.020;6.764;2023-05-16T05:02:49;9.67;;;3.70;;
11837;SDS011;5978;51.020;6.764;2023-05-16T05:05:15;8.33;;;3.20;;
11837;SDS011;5978;51.020;6.764;2023-05-16T05:07:40;11.95;;;4.68;;
11837;SDS011;5978;51.020;6.764;2023-05-16T05:10:07;13.82;;;4.40;;
11837;SDS011;5978;51.020;6.764;2023-05-16T05:12:34;8.48;;;5.65;;
11837;SDS011;5978;51.020;6.764;2023-05-16T05:15:00;20.10;;;5.70;;
11837;SDS011;5978;51.020;6.764;2023-05-16T05:17:26;10.20;;;4.47;;
11837;SDS011;5978;51.020;6.764;2023-05-16T05:19:51;12.83;;;4.97;;
11837;SDS011;5978;51.020;6.764;2023-05-16T05:22:17;12.63;;;4.77;;
11837;SDS011;5978;51.020;6.764;2023-05-16T05:24:43;14.60;;;4.73;;
11837;SDS011;5978;51.020;6.764;2023-05-16T05:27:08;10.70;;;3.97;;
11837;SDS011;5978;51.020;6.764;2023-05-16T05:29:34;8.90;;;3.60;;
11837;SDS011;5978;51.020;6.764;2023-05-16T05:32:00;14.67;;;5.03;;
11837;SDS011;5978;51.020;6.764;2023-05-16T05:34:26;9.40;;;3.80;;
11837;SDS011;5978;51.020;6.764;2023-05-16T05:36:51;11.87;;;4.37;;
11837;SDS011;5978;51.020;6.764;2023-05-16T05:39:17;12.77;;;3.60;;
11837;SDS011;5978;51.020;6.764;2023-05-16T05:41:43;10.77;;;3.23;;
11837;SDS011;5978;51.020;6.764;2023-05-16T05:44:09;14.00;;;3.50;;
11837;SDS011;5978;51.020;6.764;2023-05-16T05:46:35;14.77;;;4.47;;
11837;SDS011;5978;51.020;6.764;2023-05-16T05:49:01;14.10;;;3.47;;
11837;SDS011;5978;51.020;6.764;2023-05-16T05:51:27;12.03;;;3.30;;
11837;SDS011;5978;51.020;6.764;2023-05-16T05:53:53;7.60;;;3.60;;
11837;SDS011;5978;51.020;6.764;2023-05-16T05:56:20;10.60;;;3.70;;
11837;SDS011;5978;51.020;6.764;2023-05-16T05:58:45;10.23;;;3.13;;
11837;SDS011;5978;51.020;6.764;2023-05-16T06:01:11;12.07;;;3.50;;
11837;SDS011;5978;51.020;6.764;2023-05-16T06:03:37;4.07;;;2.97;;
11837;SDS011;5978;51.020;6.764;2023-05-16T06:06:03;20.70;;;3.47;;
11837;SDS011;5978;51.020;6.764;2023-05-16T06:08:33;8.40;;;3.30;;
11837;SDS011;5978;51.020;6.764;2023-05-16T06:10:59;8.37;;;4.00;;
11837;SDS011;5978;51.020;6.764;2023-05-16T06:13:25;13.60;;;3.37;;
11837;SDS011;5978;51.020;6.764;2023-05-16T06:15:52;13.17;;;3.70;;
11837;SDS011;5978;51.020;6.764;2023-05-16T06:18:18;12.13;;;4.20;;
11837;SDS011;5978;51.020;6.764;2023-05-16T06:20:45;13.60;;;3.57;;
11837;SDS011;5978;51.020;6.764;2023-05-16T06:23:11;6.50;;;3.00;;
11837;SDS011;5978;51.020;6.764;2023-05-16T06:25:36;14.10;;;4.80;;
11837;SDS011;5978;51.020;6.764;2023-05-16T06:28:03;10.20;;;3.40;;
11837;SDS011;5978;51.020;6.764;2023-05-16T06:30:28;10.37;;;3.20;;
11837;SDS011;5978;51.020;6.764;2023-05-16T06:32:54;11.77;;;4.07;;
11837;SDS011;5978;51.020;6.764;2023-05-16T06:35:20;7.73;;;4.43;;
11837;SDS011;5978;51.020;6.764;2023-05-16T06:37:47;10.80;;;4.00;;
11837;SDS011;5978;51.020;6.764;2023-05-16T06:40:12;9.33;;;3.90;;
11837;SDS011;5978;51.020;6.764;2023-05-16T06:42:38;8.60;;;4.63;;
11837;SDS011;5978;51.020;6.764;2023-05-16T06:45:04;7.90;;;4.03;;
11837;SDS011;5978;51.020;6.764;2023-05-16T06:47:31;13.30;;;5.57;;
11837;SDS011;5978;51.020;6.764;2023-05-16T06:49:56;10.00;;;4.00;;
11837;SDS011;5978;51.020;6.764;2023-05-16T06:52:22;6.90;;;3.27;;
11837;SDS011;5978;51.020;6.764;2023-05-16T06:54:48;12.87;;;3.90;;
11837;SDS011;5978;51.020;6.764;2023-05-16T06:57:14;7.93;;;3.60;;
11837;SDS011;5978;51.020;6.764;2023-05-16T06:59:40;6.90;;;3.70;;
11837;SDS011;5978;51.020;6.764;2023-05-16T07:02:07;14.73;;;3.43;;
11837;SDS011;5978;51.020;6.764;2023-05-16T07:04:32;9.07;;;3.20;;
11837;SDS011;5978;51.020;6.764;2023-05-16T07:07:00;12.77;;;4.03;;
11837;SDS011;5978;51.020;6.764;2023-05-16T07:09:26;11.20;;;4.17;;
11837;SDS011;5978;51.020;6.764;2023-05-16T07:11:52;10.77;;;3.93;;
11837;SDS011;5978;51.020;6.764;2023-05-16T07:14:18;14.20;;;4.20;;
11837;SDS011;5978;51.020;6.764;2023-05-16T07:16:43;5.93;;;3.83;;
11837;SDS011;5978;51.020;6.764;2023-05-16T07:19:09;5.53;;;3.30;;
11837;SDS011;5978;51.020;6.764;2023-05-16T07:21:35;8.93;;;4.43;;
11837;SDS011;5978;51.020;6.764;2023-05-16T07:24:01;7.30;;;3.70;;
11837;SDS011;5978;51.020;6.764;2023-05-16T07:26:27;9.80;;;4.20;;
11837;SDS011;5978;51.020;6.764;2023-05-16T07:28:53;11.27;;;4.13;;
11837;SDS011;5978;51.020;6.764;2023-05-16T07:31:19;9.33;;;5.00;;
11837;SDS011;5978;51.020;6.764;2023-05-16T07:33:45;5.90;;;3.63;;
11837;SDS011;5978;51.020;6.764;2023-05-16T07:36:11;13.90;;;4.47;;
11837;SDS011;5978;51.020;6.764;2023-05-16T07:38:37;6.83;;;3.10;;
11837;SDS011;5978;51.020;6.764;2023-05-16T07:41:04;15.90;;;3.90;;
11837;SDS011;5978;51.020;6.764;2023-05-16T07:43:30;11.87;;;3.40;;
11837;SDS011;5978;51.020;6.764;2023-05-16T07:45:56;12.40;;;4.80;;
11837;SDS011;5978;51.020;6.764;2023-05-16T07:48:22;8.57;;;3.03;;
11837;SDS011;5978;51.020;6.764;2023-05-16T07:50:48;5.53;;;3.00;;
11837;SDS011;5978;51.020;6.764;2023-05-16T07:53:14;7.67;;;2.70;;
11837;SDS011;5978;51.020;6.764;2023-05-16T07:55:40;8.03;;;2.60;;
11837;SDS011;5978;51.020;6.764;2023-05-16T07:58:05;9.97;;;2.57;;
11837;SDS011;5978;51.020;6.764;2023-05-16T08:00:31;6.30;;;2.90;;
11837;SDS011;5978;51.020;6.764;2023-05-16T08:02:57;13.27;;;2.50;;
11837;SDS011;5978;51.020;6.764;2023-05-16T08:05:24;6.93;;;2.50;;
11837;SDS011;5978;51.020;6.764;2023-05-16T08:07:49;4.40;;;2.20;;
11837;SDS011;5978;51.020;6.764;2023-05-16T08:10:15;8.00;;;2.37;;
11837;SDS011;5978;51.020;6.764;2023-05-16T08:12:41;5.73;;;2.20;;
11837;SDS011;5978;51.020;6.764;2023-05-16T08:15:07;6.73;;;2.30;;
11837;SDS011;5978;51.020;6.764;2023-05-16T08:17:33;10.00;;;3.20;;
11837;SDS011;5978;51.020;6.764;2023-05-16T08:19:59;10.23;;;2.83;;
11837;SDS011;5978;51.020;6.764;2023-05-16T08:22:26;12.57;;;5.17;;
11837;SDS011;5978;51.020;6.764;2023-05-16T08:24:51;6.40;;;2.13;;
11837;SDS011;5978;51.020;6.764;2023-05-16T08:27:21;5.43;;;2.00;;
11837;SDS011;5978;51.020;6.764;2023-05-16T08:29:48;6.60;;;1.80;;
11837;SDS011;5978;51.020;6.764;2023-05-16T08:32:13;8.20;;;2.40;;
11837;SDS011;5978;51.020;6.764;2023-05-16T08:34:40;16.90;;;3.00;;
11837;SDS011;5978;51.020;6.764;2023-05-16T08:37:06;3.93;;;1.60;;
11837;SDS011;5978;51.020;6.764;2023-05-16T08:39:32;7.63;;;1.87;;
11837;SDS011;5978;51.020;6.764;2023-05-16T08:41:58;5.57;;;2.10;;
11837;SDS011;5978;51.020;6.764;2023-05-16T08:44:24;6.50;;;2.63;;
11837;SDS011;5978;51.020;6.764;2023-05-16T08:46:51;4.00;;;2.23;;
11837;SDS011;5978;51.020;6.764;2023-05-16T08:49:18;5.07;;;1.90;;
11837;SDS011;5978;51.020;6.764;2023-05-16T08:51:45;5.87;;;1.67;;
11837;SDS011;5978;51.020;6.764;2023-05-16T08:54:12;8.13;;;2.37;;
11837;SDS011;5978;51.020;6.764;2023-05-16T08:56:42;4.60;;;1.67;;
11837;SDS011;5978;51.020;6.764;2023-05-16T08:59:09;8.73;;;2.30;;
11837;SDS011;5978;51.020;6.764;2023-05-16T09:01:38;2.87;;;1.43;;
11837;SDS011;5978;51.020;6.764;2023-05-16T09:04:06;7.93;;;1.67;;
11837;SDS011;5978;51.020;6.764;2023-05-16T09:06:33;6.40;;;1.67;;
11837;SDS011;5978;51.020;6.764;2023-05-16T09:09:00;3.37;;;1.50;;
11837;SDS011;5978;51.020;6.764;2023-05-16T09:11:27;6.03;;;1.70;;
11837;SDS011;5978;51.020;6.764;2023-05-16T09:13:53;3.43;;;1.50;;
11837;SDS011;5978;51.020;6.764;2023-05-16T09:16:19;6.57;;;1.30;;
11837;SDS011;5978;51.020;6.764;2023-05-16T09:18:52;4.43;;;1.47;;
11837;SDS011;5978;51.020;6.764;2023-05-16T09:21:20;3.93;;;1.43;;
11837;SDS011;5978;51.020;6.764;2023-05-16T09:23:47;6.93;;;1.60;;
11837;SDS011;5978;51.020;6.764;2023-05-16T09:26:13;4.60;;;1.87;;
11837;SDS011;5978;51.020;6.764;2023-05-16T09:28:40;8.77;;;2.57;;
11837;SDS011;5978;51.020;6.764;2023-05-16T09:31:18;3.27;;;2.43;;
11837;SDS011;5978;51.020;6.764;2023-05-16T09:33:45;4.97;;;1.80;;
11837;SDS011;5978;51.020;6.764;2023-05-16T09:36:10;7.87;;;1.90;;
11837;SDS011;5978;51.020;6.764;2023-05-16T09:38:36;5.17;;;1.80;;
11837;SDS011;5978;51.020;6.764;2023-05-16T09:41:02;8.27;;;1.43;;
11837;SDS011;5978;51.020;6.764;2023-05-16T09:43:28;5.07;;;1.43;;
11837;SDS011;5978;51.020;6.764;2023-05-16T09:45:54;5.17;;;2.23;;
11837;SDS011;5978;51.020;6.764;2023-05-16T09:48:24;6.60;;;2.30;;
11837;SDS011;5978;51.020;6.764;2023-05-16T09:50:53;5.17;;;1.87;;
11837;SDS011;5978;51.020;6.764;2023-05-16T09:53:26;6.23;;;1.43;;
11837;SDS011;5978;51.020;6.764;2023-05-16T09:56:03;4.60;;;1.60;;
11837;SDS011;5978;51.020;6.764;2023-05-16T09:58:35;5.03;;;1.30;;
11837;SDS011;5978;51.020;6.764;2023-05-16T10:01:02;3.60;;;1.30;;
11837;SDS011;5978;51.020;6.764;2023-05-16T10:03:29;5.00;;;1.97;;
11837;SDS011;5978;51.020;6.764;2023-05-16T10:05:55;4.07;;;1.73;;
11837;SDS011;5978;51.020;6.764;2023-05-16T10:08:22;3.47;;;1.57;;
11837;SDS011;5978;51.020;6.764;2023-05-16T10:10:53;7.50;;;1.50;;
11837;SDS011;5978;51.020;6.764;2023-05-16T10:13:21;3.77;;;1.40;;
11837;SDS011;5978;51.020;6.764;2023-05-16T10:15:50;7.50;;;1.60;;
11837;SDS011;5978;51.020;6.764;2023-05-16T10:18:20;6.93;;;1.70;;
11837;SDS011;5978;51.020;6.764;2023-05-16T10:20:47;6.00;;;1.70;;
11837;SDS011;5978;51.020;6.764;2023-05-16T10:23:19;3.57;;;1.40;;
11837;SDS011;5978;51.020;6.764;2023-05-16T10:25:46;2.70;;;1.40;;
11837;SDS011;5978;51.020;6.764;2023-05-16T10:28:14;8.80;;;2.37;;
11837;SDS011;5978;51.020;6.764;2023-05-16T10:30:41;6.87;;;1.60;;
11837;SDS011;5978;51.020;6.764;2023-05-16T10:33:15;4.67;;;1.70;;
11837;SDS011;5978;51.020;6.764;2023-05-16T10:35:42;5.33;;;2.00;;
11837;SDS011;5978;51.020;6.764;2023-05-16T10:38:09;5.27;;;1.90;;
11837;SDS011;5978;51.020;6.764;2023-05-16T10:40:37;5.10;;;2.00;;
11837;SDS011;5978;51.020;6.764;2023-05-16T10:43:04;4.13;;;2.20;;
11837;SDS011;5978;51.020;6.764;2023-05-16T10:45:31;6.00;;;2.00;;
11837;SDS011;5978;51.020;6.764;2023-05-16T10:48:01;6.47;;;1.70;;
11837;SDS011;5978;51.020;6.764;2023-05-16T10:50:34;5.53;;;1.87;;
11837;SDS011;5978;51.020;6.764;2023-05-16T11:06:56;3.63;;;1.47;;
11837;SDS011;5978;51.020;6.764;2023-05-16T11:09:17;6.93;;;1.63;;
11837;SDS011;5978;51.020;6.764;2023-05-16T11:29:47;2.93;;;1.33;;
11837;SDS011;5978;51.020;6.764;2023-05-16T11:32:13;3.80;;;2.10;;
11837;SDS011;5978;51.020;6.764;2023-05-16T11:34:49;3.47;;;1.50;;
11837;SDS011;5978;51.020;6.764;2023-05-16T11:37:16;5.33;;;1.80;;
11837;SDS011;5978;51.020;6.764;2023-05-16T11:39:44;8.23;;;2.53;;
11837;SDS011;5978;51.020;6.764;2023-05-16T11:42:09;2.80;;;1.53;;
11837;SDS011;5978;51.020;6.764;2023-05-16T11:44:35;5.53;;;1.77;;
11837;SDS011;5978;51.020;6.764;2023-05-16T11:47:01;5.23;;;2.10;;
11837;SDS011;5978;51.020;6.764;2023-05-16T11:49:28;6.57;;;2.10;;
11837;SDS011;5978;51.020;6.764;2023-05-16T11:51:57;7.23;;;1.90;;
11837;SDS011;5978;51.020;6.764;2023-05-16T11:54:23;5.20;;;2.00;;
11837;SDS011;5978;51.020;6.764;2023-05-16T11:56:49;4.53;;;1.77;;
11837;SDS011;5978;51.020;6.764;2023-05-16T11:59:16;8.80;;;2.13;;
11837;SDS011;5978;51.020;6.764;2023-05-16T12:01:42;7.87;;;1.90;;
11837;SDS011;5978;51.020;6.764;2023-05-16T12:04:08;2.80;;;1.20;;
11837;SDS011;5978;51.020;6.764;2023-05-16T12:06:36;1.30;;;0.90;;
11837;SDS011;5978;51.020;6.764;2023-05-16T12:09:05;1.67;;;1.07;;
11837;SDS011;5978;51.020;6.764;2023-05-16T12:11:38;2.63;;;0.80;;
11837;SDS011;5978;51.020;6.764;2023-05-16T12:14:05;4.03;;;1.60;;
11837;SDS011;5978;51.020;6.764;2023-05-16T12:16:35;3.90;;;1.73;;
11837;SDS011;5978;51.020;6.764;2023-05-16T12:19:03;7.93;;;1.50;;
11837;SDS011;5978;51.020;6.764;2023-05-16T12:21:31;2.70;;;1.40;;
11837;SDS011;5978;51.020;6.764;2023-05-16T12:23:57;3.07;;;1.70;;
11837;SDS011;5978;51.020;6.764;2023-05-16T12:26:24;2.27;;;1.50;;
11837;SDS011;5978;51.020;6.764;2023-05-16T12:28:53;4.80;;;1.73;;
11837;SDS011;5978;51.020;6.764;2023-05-16T12:31:21;6.13;;;1.57;;
11837;SDS011;5978;51.020;6.764;2023-05-16T12:33:47;2.97;;;1.63;;
11837;SDS011;5978;51.020;6.764;2023-05-16T12:36:18;4.10;;;1.40;;
11837;SDS011;5978;51.020;6.764;2023-05-16T12:38:47;2.50;;;1.43;;
11837;SDS011;5978;51.020;6.764;2023-05-16T12:41:19;2.73;;;1.40;;
11837;SDS011;5978;51.020;6.764;2023-05-16T12:43:49;3.90;;;1.23;;
11837;SDS011;5978;51.020;6.764;2023-05-16T12:46:15;5.13;;;1.40;;
11837;SDS011;5978;51.020;6.764;2023-05-16T12:48:41;7.17;;;1.80;;
11837;SDS011;5978;51.020;6.764;2023-05-16T12:51:14;2.20;;;1.60;;
11837;SDS011;5978;51.020;6.764;2023-05-16T12:53:44;4.90;;;1.67;;
11837;SDS011;5978;51.020;6.764;2023-05-16T12:56:13;3.40;;;1.40;;
11837;SDS011;5978;51.020;6.764;2023-05-16T12:58:42;5.73;;;1.53;;
11837;SDS011;5978;51.020;6.764;2023-05-16T13:01:07;2.30;;;1.20;;
11837;SDS011;5978;51.020;6.764;2023-05-16T13:03:33;2.90;;;1.10;;
11837;SDS011;5978;51.020;6.764;2023-05-16T13:06:00;2.30;;;1.30;;
11837;SDS011;5978;51.020;6.764;2023-05-16T13:08:26;2.00;;;0.90;;
11837;SDS011;5978;51.020;6.764;2023-05-16T13:10:52;1.20;;;0.80;;
11837;SDS011;5978;51.020;6.764;2023-05-16T13:13:18;2.10;;;0.87;;
11837;SDS011;5978;51.020;6.764;2023-05-16T13:15:44;1.27;;;0.70;;
11837;SDS011;5978;51.020;6.764;2023-05-16T13:18:09;4.53;;;1.00;;
11837;SDS011;5978;51.020;6.764;2023-05-16T13:20:35;2.73;;;1.20;;
11837;SDS011;5978;51.020;6.764;2023-05-16T13:23:01;2.40;;;0.97;;
11837;SDS011;5978;51.020;6.764;2023-05-16T13:25:26;1.43;;;0.90;;
11837;SDS011;5978;51.020;6.764;2023-05-16T13:27:52;4.40;;;1.20;;
11837;SDS011;5978;51.020;6.764;2023-05-16T13:30:18;2.90;;;1.00;;
11837;SDS011;5978;51.020;6.764;2023-05-16T13:32:43;1.80;;;1.23;;
11837;SDS011;5978;51.020;6.764;2023-05-16T13:35:09;4.93;;;1.37;;
11837;SDS011;5978;51.020;6.764;2023-05-16T13:37:35;4.40;;;1.10;;
11837;SDS011;5978;51.020;6.764;2023-05-16T13:40:01;2.27;;;1.30;;
11837;SDS011;5978;51.020;6.764;2023-05-16T13:42:28;2.40;;;0.90;;
11837;SDS011;5978;51.020;6.764;2023-05-16T13:44:54;2.27;;;0.90;;
11837;SDS011;5978;51.020;6.764;2023-05-16T13:47:19;1.40;;;1.30;;
11837;SDS011;5978;51.020;6.764;2023-05-16T13:49:45;1.83;;;1.00;;
11837;SDS011;5978;51.020;6.764;2023-05-16T13:52:11;2.47;;;1.00;;
11837;SDS011;5978;51.020;6.764;2023-05-16T13:54:46;4.03;;;1.77;;
11837;SDS011;5978;51.020;6.764;2023-05-16T13:57:12;1.70;;;0.80;;
11837;SDS011;5978;51.020;6.764;2023-05-16T13:59:37;2.50;;;1.07;;
11837;SDS011;5978;51.020;6.764;2023-05-16T14:02:03;3.00;;;1.00;;
11837;SDS011;5978;51.020;6.764;2023-05-16T14:04:29;3.13;;;1.07;;
11837;SDS011;5978;51.020;6.764;2023-05-16T14:06:54;3.37;;;1.50;;
11837;SDS011;5978;51.020;6.764;2023-05-16T14:09:20;4.30;;;1.30;;
11837;SDS011;5978;51.020;6.764;2023-05-16T14:11:46;1.97;;;1.00;;
11837;SDS011;5978;51.020;6.764;2023-05-16T14:14:11;2.33;;;1.00;;
11837;SDS011;5978;51.020;6.764;2023-05-16T14:16:37;1.20;;;0.80;;
11837;SDS011;5978;51.020;6.764;2023-05-16T14:19:03;3.90;;;1.00;;
11837;SDS011;5978;51.020;6.764;2023-05-16T14:21:28;2.93;;;1.70;;
11837;SDS011;5978;51.020;6.764;2023-05-16T14:23:54;1.77;;;1.37;;
11837;SDS011;5978;51.020;6.764;2023-05-16T14:26:20;5.60;;;1.90;;
11837;SDS011;5978;51.020;6.764;2023-05-16T14:28:49;4.00;;;1.37;;
11837;SDS011;5978;51.020;6.764;2023-05-16T14:31:15;2.40;;;1.13;;
11837;SDS011;5978;51.020;6.764;2023-05-16T14:33:40;2.90;;;1.17;;
11837;SDS011;5978;51.020;6.764;2023-05-16T14:36:07;3.20;;;1.20;;
11837;SDS011;5978;51.020;6.764;2023-05-16T14:38:32;4.50;;;1.80;;
11837;SDS011;5978;51.020;6.764;2023-05-16T14:40:58;5.83;;;2.07;;
11837;SDS011;5978;51.020;6.764;2023-05-16T14:43:24;3.53;;;1.27;;
11837;SDS011;5978;51.020;6.764;2023-05-16T14:45:49;3.00;;;1.17;;
11837;SDS011;5978;51.020;6.764;2023-05-16T14:48:15;2.03;;;1.00;;
11837;SDS011;5978;51.020;6.764;2023-05-16T14:50:41;2.90;;;1.00;;
11837;SDS011;5978;51.020;6.764;2023-05-16T14:53:06;2.53;;;1.43;;
11837;SDS011;5978;51.020;6.764;2023-05-16T14:55:32;2.47;;;1.00;;
11837;SDS011;5978;51.020;6.764;2023-05-16T14:57:58;2.23;;;1.63;;
11837;SDS011;5978;51.020;6.764;2023-05-16T15:00:23;8.40;;;1.70;;
11837;SDS011;5978;51.020;6.764;2023-05-16T15:02:49;2.13;;;1.20;;
11837;SDS011;5978;51.020;6.764;2023-05-16T15:05:15;2.63;;;1.63;;
11837;SDS011;5978;51.020;6.764;2023-05-16T15:07:41;4.13;;;1.40;;
11837;SDS011;5978;51.020;6.764;2023-05-16T15:10:08;1.73;;;1.10;;
11837;SDS011;5978;51.020;6.764;2023-05-16T15:12:34;9.13;;;1.70;;
11837;SDS011;5978;51.020;6.764;2023-05-16T15:15:00;4.70;;;1.80;;
11837;SDS011;5978;51.020;6.764;2023-05-16T15:17:26;3.10;;;1.70;;
11837;SDS011;5978;51.020;6.764;2023-05-16T15:19:51;2.43;;;2.20;;
11837;SDS011;5978;51.020;6.764;2023-05-16T15:22:18;2.43;;;1.70;;
11837;SDS011;5978;51.020;6.764;2023-05-16T15:24:44;2.87;;;1.63;;
11837;SDS011;5978;51.020;6.764;2023-05-16T15:27:10;4.37;;;2.10;;
11837;SDS011;5978;51.020;6.764;2023-05-16T15:29:36;2.63;;;1.90;;
11837;SDS011;5978;51.020;6.764;2023-05-16T15:32:02;4.30;;;1.60;;
11837;SDS011;5978;51.020;6.764;2023-05-16T15:34:30;3.03;;;2.03;;
11837;SDS011;5978;51.020;6.764;2023-05-16T15:36:56;5.00;;;1.57;;
11837;SDS011;5978;51.020;6.764;2023-05-16T15:39:23;4.83;;;1.57;;